Time;durP1;ratioP1;P1;durP2;ratioP2;P2;SDS_P1;SDS_P2;PMS_P1;PMS_P2;Temp;Humidity;BMP_temperature;BMP_pressure;BME280_temperature;BME280_humidity;BME280_pressure;Samples;Min_cycle;Max_cycle;Signal;HPM_P1;HPM_P2
2022/03/06 00:01:19;;;;;;;37.35;22.30;;;4.50;52.30;;;;;;5056017;28;20082;-62
2022/03/06 00:03:45;;;;;;;39.13;22.23;;;4.60;52.30;;;;;;5034117;28;20115;-61
2022/03/06 00:06:13;;;;;;;36.78;23.20;;;4.60;52.40;;;;;;5066103;28;20024;-65
2022/03/06 00:08:40;;;;;;;31.50;20.23;;;4.50;52.80;;;;;;5072305;28;20020;-63
2022/03/06 00:11:06;;;;;;;35.95;22.55;;;4.50;52.70;;;;;;5070866;28;20024;-62
2022/03/06 00:13:33;;;;;;;38.45;23.85;;;4.50;53.00;;;;;;5033942;28;20089;-62
2022/03/06 00:15:59;;;;;;;34.72;21.95;;;4.40;53.00;;;;;;5047037;28;20024;-62
2022/03/06 00:18:25;;;;;;;36.85;23.50;;;4.50;53.10;;;;;;5053903;28;20025;-62
2022/03/06 00:20:51;;;;;;;37.88;22.23;;;4.60;52.90;;;;;;5067221;28;20474;-62
2022/03/06 00:23:17;;;;;;;41.28;22.70;;;4.60;52.80;;;;;;5071667;28;20074;-63
2022/03/06 00:25:43;;;;;;;36.15;22.40;;;4.60;52.70;;;;;;5053118;28;20119;-62
2022/03/06 00:28:09;;;;;;;38.90;24.30;;;4.70;52.80;;;;;;5054197;28;20115;-64
2022/03/06 00:30:34;;;;;;;38.05;23.80;;;4.60;52.70;;;;;;5050770;28;20401;-62
2022/03/06 00:33:00;;;;;;;34.92;22.90;;;4.50;53.20;;;;;;5054122;28;20035;-63
2022/03/06 00:35:28;;;;;;;35.42;22.77;;;4.40;53.60;;;;;;5040752;28;20036;-62
2022/03/06 00:37:55;;;;;;;37.28;23.33;;;4.40;53.90;;;;;;5052215;28;20021;-62
2022/03/06 00:40:21;;;;;;;37.45;24.02;;;4.40;53.80;;;;;;5051139;28;20017;-63
2022/03/06 00:42:47;;;;;;;42.22;24.30;;;4.30;54.20;;;;;;5052313;28;20029;-62
2022/03/06 00:45:13;;;;;;;39.45;24.13;;;4.20;54.50;;;;;;5061610;28;20414;-62
2022/03/06 00:47:39;;;;;;;42.70;24.20;;;4.20;54.60;;;;;;5068202;28;20120;-63
2022/03/06 00:50:05;;;;;;;41.85;25.10;;;4.20;54.50;;;;;;5051752;28;20025;-63
2022/03/06 00:52:30;;;;;;;39.25;24.67;;;4.20;54.50;;;;;;5046735;28;20091;-62
2022/03/06 00:54:56;;;;;;;37.72;24.52;;;4.20;54.30;;;;;;5051400;28;20112;-64
2022/03/06 00:57:22;;;;;;;40.47;24.83;;;4.30;54.40;;;;;;5043560;28;20427;-63
2022/03/06 00:59:48;;;;;;;40.08;24.15;;;4.30;54.20;;;;;;5065653;28;20107;-62
2022/03/06 01:02:13;;;;;;;41.38;25.48;;;4.30;54.30;;;;;;5068027;28;20085;-61
2022/03/06 01:04:40;;;;;;;40.63;23.88;;;4.20;54.50;;;;;;5055236;28;20105;-63
2022/03/06 01:07:06;;;;;;;42.53;25.08;;;4.20;54.60;;;;;;5071318;28;20032;-62
2022/03/06 01:09:32;;;;;;;39.28;24.42;;;4.20;54.80;;;;;;5038591;28;20082;-62
2022/03/06 01:11:58;;;;;;;39.63;25.75;;;4.10;54.90;;;;;;5033101;28;20032;-61
2022/03/06 01:14:24;;;;;;;39.45;23.88;;;4.20;54.90;;;;;;5069528;28;20082;-62
2022/03/06 01:17:08;;;;;;;41.05;23.85;;;4.30;54.80;;;;;;5033750;28;20360;-61
2022/03/06 01:19:34;;;;;;;41.75;24.60;;;4.20;54.70;;;;;;5050624;28;20028;-62
2022/03/06 01:22:00;;;;;;;39.80;24.33;;;4.30;54.80;;;;;;5066923;28;20052;-61
2022/03/06 01:24:26;;;;;;;40.70;26.08;;;4.20;54.60;;;;;;5070433;28;20048;-63
2022/03/06 01:26:52;;;;;;;42.47;24.52;;;4.10;54.80;;;;;;5070578;28;20024;-62
2022/03/06 01:29:18;;;;;;;39.60;24.60;;;4.10;55.00;;;;;;5071058;28;20348;-63
2022/03/06 01:31:44;;;;;;;39.85;24.80;;;4.10;55.10;;;;;;5070970;28;20025;-62
2022/03/06 01:34:10;;;;;;;45.17;25.05;;;4.10;55.30;;;;;;5071564;28;20046;-62
2022/03/06 01:36:37;;;;;;;37.75;23.48;;;3.90;55.60;;;;;;5070617;28;20348;-63
2022/03/06 01:39:03;;;;;;;40.65;24.02;;;4.00;55.60;;;;;;5069648;28;20056;-63
2022/03/06 01:41:33;;;;;;;38.03;22.80;;;4.00;55.30;;;;;;5070614;28;20060;-63
2022/03/06 01:43:59;;;;;;;40.55;23.65;;;4.10;55.20;;;;;;5074917;28;20024;-62
2022/03/06 01:46:25;;;;;;;40.00;23.73;;;4.10;55.00;;;;;;5074184;28;20077;-62
2022/03/06 01:48:51;;;;;;;40.03;23.92;;;4.10;54.90;;;;;;5074857;28;20025;-62
2022/03/06 01:51:17;;;;;;;40.95;23.70;;;4.20;54.90;;;;;;5074914;28;20500;-62
2022/03/06 01:53:43;;;;;;;37.70;23.20;;;4.20;54.90;;;;;;5072122;28;20520;-61
2022/03/06 01:56:10;;;;;;;42.03;25.10;;;4.20;54.70;;;;;;5074405;28;20117;-62
2022/03/06 01:58:36;;;;;;;38.70;23.52;;;4.20;54.50;;;;;;5072447;28;20036;-62
2022/03/06 02:01:02;;;;;;;36.33;22.67;;;4.20;54.30;;;;;;5075213;28;20039;-63
2022/03/06 02:03:28;;;;;;;34.13;21.70;;;4.10;54.30;;;;;;5074218;28;20028;-63
2022/03/06 02:05:53;;;;;;;35.97;21.95;;;4.00;54.20;;;;;;5074940;28;20108;-62
2022/03/06 02:08:20;;;;;;;33.90;21.27;;;4.10;54.00;;;;;;5074336;28;20037;-63
2022/03/06 02:10:49;;;;;;;33.50;20.77;;;4.10;53.60;;;;;;5072036;28;20119;-63
2022/03/06 02:13:15;;;;;;;35.90;20.88;;;4.10;53.40;;;;;;5074532;28;20031;-63
2022/03/06 02:15:41;;;;;;;33.95;20.95;;;4.20;53.20;;;;;;5074075;28;20091;-62
2022/03/06 02:18:07;;;;;;;39.35;22.52;;;4.10;53.00;;;;;;5056903;28;20489;-62
2022/03/06 02:20:34;;;;;;;36.83;22.88;;;4.10;53.30;;;;;;5072438;28;20052;-63
2022/03/06 02:23:00;;;;;;;37.85;21.70;;;4.10;53.20;;;;;;5073110;28;20032;-63
2022/03/06 02:25:35;;;;;;;32.05;20.42;;;4.10;53.00;;;;;;5072885;28;20098;-63
2022/03/06 02:28:08;;;;;;;35.95;20.98;;;4.10;53.10;;;;;;5072600;28;20052;-63
2022/03/06 02:30:37;;;;;;;33.63;20.50;;;4.10;52.70;;;;;;5073602;28;20032;-63
2022/03/06 02:33:21;;;;;;;37.15;21.33;;;4.10;52.70;;;;;;5074111;28;20066;-62
2022/03/06 02:35:47;;;;;;;32.28;19.65;;;4.10;52.50;;;;;;5073483;28;20175;-63
2022/03/06 02:38:12;;;;;;;30.23;19.63;;;4.20;52.30;;;;;;5073646;28;20119;-62
2022/03/06 02:40:41;;;;;;;32.33;20.13;;;4.20;52.10;;;;;;5072770;28;20468;-63
2022/03/06 02:43:08;;;;;;;33.65;19.95;;;4.20;52.20;;;;;;5073938;28;20060;-63
2022/03/06 02:45:35;;;;;;;35.83;20.52;;;4.20;52.10;;;;;;5073775;28;20028;-63
2022/03/06 02:48:01;;;;;;;35.13;20.75;;;4.20;52.10;;;;;;5073889;28;20033;-63
2022/03/06 02:50:30;;;;;;;35.60;19.80;;;4.10;52.30;;;;;;5073430;28;20034;-64
2022/03/06 02:52:57;;;;;;;35.47;21.52;;;4.10;52.40;;;;;;5073279;28;20020;-63
2022/03/06 02:55:23;;;;;;;35.35;20.80;;;4.10;52.50;;;;;;5072800;28;20519;-64
2022/03/06 02:57:49;;;;;;;33.67;20.70;;;4.20;52.40;;;;;;5072891;28;20028;-63
2022/03/06 03:00:19;;;;;;;37.78;21.73;;;4.10;52.30;;;;;;5073613;28;20040;-63
2022/03/06 03:02:46;;;;;;;36.58;21.00;;;4.10;52.40;;;;;;5071989;28;20115;-62
2022/03/06 03:05:13;;;;;;;35.75;20.80;;;4.10;52.40;;;;;;5073511;28;20429;-63
2022/03/06 03:07:40;;;;;;;39.95;19.83;;;4.10;52.30;;;;;;5072998;28;20052;-63
2022/03/06 03:10:08;;;;;;;30.38;19.23;;;4.20;52.20;;;;;;5073868;28;20095;-62
2022/03/06 03:12:34;;;;;;;36.25;19.95;;;4.20;52.10;;;;;;5072810;28;20445;-63
2022/03/06 03:14:59;;;;;;;36.97;20.10;;;4.20;52.80;;;;;;5072279;28;20027;-62
2022/03/06 03:17:25;;;;;;;32.85;20.50;;;4.10;52.10;;;;;;5072460;28;20035;-62
2022/03/06 03:19:51;;;;;;;33.80;20.60;;;4.10;52.50;;;;;;5071582;28;20024;-63
2022/03/06 03:22:17;;;;;;;32.45;20.42;;;4.00;52.60;;;;;;5071653;28;20453;-63
2022/03/06 03:24:42;;;;;;;34.88;20.00;;;3.90;52.60;;;;;;5072555;28;20123;-62
2022/03/06 03:27:08;;;;;;;38.70;21.38;;;3.90;52.80;;;;;;5073644;28;20025;-62
2022/03/06 03:29:34;;;;;;;33.22;20.00;;;3.80;52.70;;;;;;5072285;28;20056;-62
2022/03/06 03:31:59;;;;;;;34.90;20.52;;;3.90;52.80;;;;;;5071863;28;20047;-62
2022/03/06 03:34:25;;;;;;;34.38;20.30;;;3.90;52.80;;;;;;5071907;28;20028;-62
2022/03/06 03:36:51;;;;;;;31.27;19.83;;;3.90;52.60;;;;;;5072154;28;20039;-62
2022/03/06 03:39:17;;;;;;;32.85;19.75;;;4.00;52.70;;;;;;5072824;28;20488;-62
2022/03/06 03:41:42;;;;;;;34.38;19.15;;;3.90;52.70;;;;;;5054516;28;20036;-63
2022/03/06 03:44:08;;;;;;;30.35;19.77;;;3.90;52.70;;;;;;5072969;28;20029;-63
2022/03/06 03:46:34;;;;;;;36.58;21.40;;;3.90;52.60;;;;;;5072125;28;20047;-63
2022/03/06 03:49:00;;;;;;;35.65;20.20;;;3.90;52.50;;;;;;5072853;28;20039;-63
2022/03/06 03:51:44;;;;;;;28.02;18.65;;;3.90;52.60;;;;;;5073071;28;20111;-62
2022/03/06 03:54:10;;;;;;;34.42;20.63;;;3.80;52.70;;;;;;5072753;28;20142;-62
2022/03/06 03:56:36;;;;;;;35.08;20.02;;;3.90;52.60;;;;;;5072361;28;20052;-62
2022/03/06 03:59:02;;;;;;;29.55;18.73;;;3.90;52.40;;;;;;5072752;28;20027;-62
2022/03/06 04:01:27;;;;;;;36.60;20.38;;;4.00;52.30;;;;;;5071278;28;20039;-63
2022/03/06 04:03:53;;;;;;;31.27;19.77;;;4.00;52.10;;;;;;5070649;28;20031;-62
2022/03/06 04:06:19;;;;;;;34.55;19.73;;;4.00;52.10;;;;;;5070160;28;20028;-62
2022/03/06 04:08:45;;;;;;;30.48;18.83;;;3.90;52.00;;;;;;5071740;28;20032;-62
2022/03/06 04:11:10;;;;;;;32.83;19.75;;;3.90;52.10;;;;;;5072341;28;20234;-62
2022/03/06 04:13:36;;;;;;;32.97;19.77;;;3.90;52.00;;;;;;5070653;28;20025;-62
2022/03/06 04:16:02;;;;;;;31.38;19.42;;;3.90;51.90;;;;;;5072339;28;20032;-62
2022/03/06 04:18:27;;;;;;;31.65;19.33;;;3.90;51.80;;;;;;5070740;28;20020;-62
2022/03/06 04:20:53;;;;;;;30.08;18.73;;;4.00;51.80;;;;;;5063680;28;20044;-62
2022/03/06 04:23:19;;;;;;;32.55;19.23;;;4.00;51.70;;;;;;5052590;28;20457;-62
2022/03/06 04:25:44;;;;;;;34.50;19.05;;;4.00;51.50;;;;;;5051061;28;20493;-62
2022/03/06 04:28:10;;;;;;;34.17;19.42;;;4.00;51.40;;;;;;5034061;28;20021;-62
2022/03/06 04:30:36;;;;;;;30.65;18.45;;;4.00;51.20;;;;;;5033915;28;20021;-62
2022/03/06 04:33:03;;;;;;;30.15;19.27;;;4.10;51.10;;;;;;5051298;28;20462;-62
2022/03/06 04:35:29;;;;;;;29.83;18.05;;;4.00;51.00;;;;;;5052141;28;20056;-62
2022/03/06 04:37:54;;;;;;;28.98;18.92;;;4.10;51.00;;;;;;5050905;28;20122;-62
2022/03/06 04:40:20;;;;;;;28.80;19.15;;;4.00;50.90;;;;;;5051264;28;20028;-62
2022/03/06 04:42:46;;;;;;;29.13;18.90;;;4.10;50.90;;;;;;5050737;28;20032;-62
2022/03/06 04:45:11;;;;;;;31.92;19.40;;;4.00;50.70;;;;;;5051845;28;20104;-62
2022/03/06 04:47:37;;;;;;;28.77;18.13;;;4.00;50.80;;;;;;5050892;28;20112;-63
2022/03/06 04:50:04;;;;;;;32.88;18.45;;;4.00;50.70;;;;;;5033969;28;20120;-62
2022/03/06 04:52:30;;;;;;;28.98;18.35;;;4.00;50.50;;;;;;5033492;28;20037;-63
2022/03/06 04:54:55;;;;;;;30.63;19.23;;;4.00;50.50;;;;;;5050763;28;20526;-62
2022/03/06 04:57:21;;;;;;;29.67;18.02;;;4.00;50.60;;;;;;5051480;28;20029;-62
2022/03/06 04:59:47;;;;;;;29.40;18.13;;;3.90;50.50;;;;;;5050746;28;20465;-62
2022/03/06 05:02:12;;;;;;;29.27;17.83;;;4.00;50.50;;;;;;5050958;28;20040;-62
2022/03/06 05:04:38;;;;;;;34.13;19.48;;;3.90;50.40;;;;;;5032564;28;20021;-63
2022/03/06 05:07:04;;;;;;;29.92;17.88;;;3.90;50.50;;;;;;5051334;28;20052;-62
2022/03/06 05:09:29;;;;;;;37.63;23.75;;;3.80;50.40;;;;;;5051522;28;20465;-62
2022/03/06 05:11:55;;;;;;;29.63;18.30;;;3.90;50.50;;;;;;5050718;28;20033;-62
2022/03/06 05:14:21;;;;;;;31.45;18.50;;;3.90;50.40;;;;;;5051404;28;20058;-62
2022/03/06 05:16:46;;;;;;;36.45;22.05;;;3.80;51.10;;;;;;5032039;28;20385;-63
2022/03/06 05:19:12;;;;;;;31.92;19.83;;;3.80;50.60;;;;;;5051069;28;20474;-62
2022/03/06 05:21:38;;;;;;;46.50;28.30;;;3.90;50.60;;;;;;5057105;28;20052;-64
2022/03/06 05:24:05;;;;;;;32.35;18.25;;;3.80;50.50;;;;;;5071360;28;20024;-62
2022/03/06 05:26:30;;;;;;;31.13;19.13;;;3.90;50.60;;;;;;5069901;28;20060;-62
2022/03/06 05:28:56;;;;;;;31.30;18.83;;;3.80;50.40;;;;;;5070516;28;20667;-62
2022/03/06 05:31:22;;;;;;;35.20;18.98;;;3.80;50.50;;;;;;5070902;28;20086;-62
2022/03/06 05:33:47;;;;;;;31.70;19.00;;;3.80;50.50;;;;;;5070561;28;20040;-62
2022/03/06 05:36:13;;;;;;;26.00;16.98;;;3.70;50.50;;;;;;5071202;28;20040;-62
2022/03/06 05:38:39;;;;;;;28.77;17.95;;;3.80;50.60;;;;;;5069307;28;20104;-63
2022/03/06 05:41:05;;;;;;;29.40;18.63;;;3.80;50.20;;;;;;5070815;28;20051;-63
2022/03/06 05:43:31;;;;;;;28.77;17.10;;;3.80;50.20;;;;;;5070590;28;20033;-63
2022/03/06 05:45:58;;;;;;;30.85;18.15;;;3.90;50.20;;;;;;5070733;28;20036;-63
2022/03/06 05:48:24;;;;;;;29.13;18.17;;;4.00;50.10;;;;;;5071383;28;20409;-63
2022/03/06 05:50:50;;;;;;;30.08;18.13;;;4.00;50.00;;;;;;5070476;28;20040;-63
2022/03/06 05:53:15;;;;;;;31.08;17.75;;;4.00;49.80;;;;;;5071254;28;20040;-63
2022/03/06 05:55:41;;;;;;;30.83;18.50;;;4.00;49.60;;;;;;5070488;28;20044;-64
2022/03/06 05:58:07;;;;;;;27.67;18.02;;;4.00;49.60;;;;;;5071157;28;20025;-62
2022/03/06 06:00:33;;;;;;;27.48;17.73;;;4.10;49.60;;;;;;5070734;28;20028;-62
2022/03/06 06:02:59;;;;;;;30.05;18.40;;;4.20;49.50;;;;;;5069330;28;20355;-63
2022/03/06 06:05:25;;;;;;;27.55;17.33;;;4.20;49.20;;;;;;5070541;28;20476;-62
2022/03/06 06:07:52;;;;;;;29.85;18.15;;;4.20;49.00;;;;;;5069121;28;20024;-63
2022/03/06 06:10:18;;;;;;;32.65;17.70;;;4.30;49.10;;;;;;5070868;28;20039;-62
2022/03/06 06:12:45;;;;;;;28.45;18.75;;;4.30;48.80;;;;;;5068621;28;20048;-63
2022/03/06 06:15:10;;;;;;;28.75;17.95;;;4.40;48.60;;;;;;5070620;28;20035;-62
2022/03/06 06:17:37;;;;;;;31.45;18.30;;;4.40;48.50;;;;;;5071056;28;20096;-62
2022/03/06 06:20:07;;;;;;;28.90;17.52;;;4.50;48.30;;;;;;5067659;28;20113;-62
2022/03/06 06:22:33;;;;;;;32.72;18.00;;;4.60;48.10;;;;;;5032987;28;20130;-62
2022/03/06 06:25:00;;;;;;;31.50;18.27;;;4.50;47.90;;;;;;5048722;28;20079;-63
2022/03/06 06:27:26;;;;;;;28.85;18.75;;;4.60;48.00;;;;;;5050055;28;20120;-62
2022/03/06 06:29:53;;;;;;;27.02;17.65;;;4.60;47.90;;;;;;5034710;28;20054;-63
2022/03/06 06:32:18;;;;;;;30.60;18.90;;;4.70;48.00;;;;;;5035572;28;20144;-62
2022/03/06 06:34:45;;;;;;;31.33;19.55;;;4.70;47.90;;;;;;5035133;28;20108;-63
2022/03/06 06:37:12;;;;;;;31.17;17.73;;;4.70;47.90;;;;;;5035444;28;20071;-63
2022/03/06 06:39:37;;;;;;;31.13;19.50;;;4.70;48.00;;;;;;5035159;28;20021;-62
2022/03/06 06:42:04;;;;;;;30.80;19.17;;;4.60;47.90;;;;;;5035017;28;20087;-62
2022/03/06 06:44:30;;;;;;;29.40;19.40;;;4.50;48.10;;;;;;5035199;28;20382;-64
2022/03/06 06:46:56;;;;;;;28.15;18.58;;;4.40;48.50;;;;;;5052813;28;20048;-63
2022/03/06 06:49:22;;;;;;;36.33;21.83;;;4.50;48.80;;;;;;5053546;28;20037;-63
2022/03/06 06:51:48;;;;;;;34.42;21.45;;;4.60;48.70;;;;;;5051971;28;20041;-63
2022/03/06 06:54:15;;;;;;;35.13;21.63;;;4.80;48.60;;;;;;5053109;28;20052;-63
2022/03/06 06:56:41;;;;;;;37.20;22.02;;;4.80;48.50;;;;;;5052813;28;20032;-63
2022/03/06 06:59:07;;;;;;;37.22;21.02;;;4.90;48.60;;;;;;5052388;28;20037;-63
2022/03/06 07:01:32;;;;;;;34.97;22.60;;;4.90;48.60;;;;;;5053118;28;20086;-62
2022/03/06 07:03:58;;;;;;;32.03;21.85;;;4.90;48.50;;;;;;5033777;28;20037;-63
2022/03/06 07:06:24;;;;;;;35.80;22.30;;;4.90;48.40;;;;;;5049475;28;20040;-62
2022/03/06 07:08:50;;;;;;;36.05;22.13;;;5.00;48.50;;;;;;5053129;28;20112;-62
2022/03/06 07:11:15;;;;;;;34.80;22.50;;;5.10;48.30;;;;;;5035174;28;20045;-62
2022/03/06 07:13:41;;;;;;;41.67;25.40;;;5.10;48.20;;;;;;5052429;28;20440;-62
2022/03/06 07:16:07;;;;;;;37.17;24.13;;;5.90;49.50;;;;;;5051571;28;20029;-62
2022/03/06 07:18:33;;;;;;;36.08;24.67;;;8.60;46.60;;;;;;5052472;28;20405;-61
2022/03/06 07:20:58;;;;;;;36.45;26.17;;;10.90;41.20;;;;;;5051564;28;20053;-62
2022/03/06 07:23:24;;;;;;;37.58;25.77;;;12.50;37.20;;;;;;5052205;28;20090;-61
2022/03/06 07:25:50;;;;;;;37.15;26.98;;;13.90;34.50;;;;;;5034118;28;20021;-61
2022/03/06 07:28:17;;;;;;;36.83;27.65;;;14.30;33.30;;;;;;5051550;28;20039;-62
2022/03/06 07:30:42;;;;;;;34.17;26.27;;;14.80;33.60;;;;;;5034457;28;20033;-62
2022/03/06 07:33:08;;;;;;;33.40;26.45;;;16.40;32.10;;;;;;5033952;28;20036;-65
2022/03/06 07:35:34;;;;;;;33.22;26.50;;;18.00;29.80;;;;;;5033746;28;20393;-62
2022/03/06 07:37:59;;;;;;;31.70;26.83;;;19.30;29.20;;;;;;5032893;28;20066;-62
2022/03/06 07:40:25;;;;;;;36.00;26.30;;;20.70;28.20;;;;;;5051484;28;20450;-62
2022/03/06 07:42:51;;;;;;;30.30;24.13;;;22.00;26.60;;;;;;5033067;28;20036;-63
2022/03/06 07:45:18;;;;;;;28.48;23.35;;;21.80;24.70;;;;;;5032302;28;20044;-63
2022/03/06 07:47:44;;;;;;;31.92;23.98;;;20.60;25.30;;;;;;5051212;28;20059;-63
2022/03/06 07:50:12;;;;;;;29.98;24.10;;;19.00;25.30;;;;;;5032432;28;20473;-63
2022/03/06 07:52:39;;;;;;;28.70;23.25;;;17.40;26.40;;;;;;5050410;28;20037;-63
2022/03/06 07:55:06;;;;;;;31.83;24.05;;;16.30;27.80;;;;;;5031446;28;20116;-63
2022/03/06 07:57:32;;;;;;;37.10;26.35;;;15.30;28.50;;;;;;5049693;28;20079;-64
2022/03/06 07:59:57;;;;;;;33.80;25.00;;;14.30;29.40;;;;;;5051326;28;20041;-63
2022/03/06 08:02:23;;;;;;;32.75;24.63;;;13.60;30.50;;;;;;5051131;28;20029;-61
2022/03/06 08:04:49;;;;;;;32.53;23.70;;;13.40;31.10;;;;;;5049416;28;20025;-63
2022/03/06 08:07:14;;;;;;;36.20;26.15;;;13.50;31.30;;;;;;5050011;28;20054;-63
2022/03/06 08:09:40;;;;;;;32.72;24.42;;;13.10;31.30;;;;;;5050924;28;20033;-63
2022/03/06 08:12:07;;;;;;;32.80;23.60;;;12.60;32.10;;;;;;5047604;28;20056;-64
2022/03/06 08:14:41;;;;;;;35.30;25.38;;;12.20;32.80;;;;;;5047479;28;20485;-63
2022/03/06 08:17:08;;;;;;;35.33;23.80;;;12.10;33.20;;;;;;5048752;28;20347;-63
2022/03/06 08:19:33;;;;;;;32.45;23.58;;;12.10;33.30;;;;;;5050142;28;20048;-62
2022/03/06 08:21:59;;;;;;;35.22;23.83;;;12.20;33.30;;;;;;5049435;28;20482;-63
2022/03/06 08:24:26;;;;;;;34.70;24.63;;;12.10;33.20;;;;;;5032532;28;20406;-62
2022/03/06 08:26:54;;;;;;;33.58;24.33;;;11.50;33.50;;;;;;5049435;28;20069;-64
2022/03/06 08:29:21;;;;;;;34.35;24.55;;;11.30;34.40;;;;;;5050387;28;20064;-63
2022/03/06 08:31:48;;;;;;;33.40;25.00;;;11.30;34.20;;;;;;5033072;28;20048;-64
2022/03/06 08:34:14;;;;;;;34.90;24.63;;;11.30;34.10;;;;;;5051019;28;20025;-63
2022/03/06 08:36:40;;;;;;;36.83;25.52;;;11.10;34.70;;;;;;5050533;28;20522;-62
2022/03/06 08:39:07;;;;;;;37.63;25.23;;;10.70;35.20;;;;;;5050227;28;20151;-63
2022/03/06 08:41:33;;;;;;;33.72;25.13;;;10.40;35.90;;;;;;5051047;28;20052;-62
2022/03/06 08:43:59;;;;;;;32.78;24.13;;;10.00;36.40;;;;;;5050881;28;20025;-63
2022/03/06 08:46:26;;;;;;;36.88;26.00;;;9.70;36.70;;;;;;5050932;28;20139;-61
2022/03/06 08:48:52;;;;;;;35.95;25.58;;;9.60;37.30;;;;;;5050771;28;20029;-63
2022/03/06 08:51:18;;;;;;;36.78;25.20;;;9.70;37.30;;;;;;5049078;28;20044;-62
2022/03/06 08:53:43;;;;;;;38.13;25.58;;;9.80;37.30;;;;;;5033252;28;20021;-63
2022/03/06 08:56:09;;;;;;;37.75;26.38;;;9.50;37.70;;;;;;5050856;28;20540;-63
2022/03/06 08:58:35;;;;;;;35.63;25.58;;;9.50;37.90;;;;;;5049991;28;20033;-62
2022/03/06 09:01:01;;;;;;;35.83;23.75;;;9.20;38.00;;;;;;5050414;28;20456;-63
2022/03/06 09:03:26;;;;;;;38.08;25.70;;;9.30;38.30;;;;;;5049849;28;20041;-62
2022/03/06 09:05:52;;;;;;;37.80;26.42;;;9.60;37.50;;;;;;5031324;28;20045;-64
2022/03/06 09:08:18;;;;;;;33.85;24.63;;;9.50;37.60;;;;;;5048657;28;20040;-63
2022/03/06 09:10:44;;;;;;;36.50;24.90;;;9.40;38.00;;;;;;5031276;28;20075;-63
2022/03/06 09:13:09;;;;;;;36.83;25.67;;;9.60;38.00;;;;;;5049922;28;20314;-64
2022/03/06 09:15:36;;;;;;;37.00;24.98;;;9.70;37.50;;;;;;5032823;28;20078;-62
2022/03/06 09:18:20;;;;;;;35.97;23.75;;;9.60;37.40;;;;;;5049202;28;20029;-63
2022/03/06 09:20:46;;;;;;;35.88;25.05;;;9.70;37.40;;;;;;5050916;28;20049;-63
2022/03/06 09:23:12;;;;;;;33.60;23.65;;;9.90;37.20;;;;;;5049076;28;20017;-64
2022/03/06 09:25:38;;;;;;;32.60;23.42;;;9.80;36.70;;;;;;5050622;28;20445;-63
2022/03/06 09:28:04;;;;;;;34.85;23.77;;;9.40;36.40;;;;;;5032289;28;20033;-64
2022/03/06 09:30:30;;;;;;;31.73;22.65;;;9.00;37.10;;;;;;5050660;28;20013;-63
2022/03/06 09:32:56;;;;;;;32.83;22.17;;;8.70;37.50;;;;;;5032426;28;20021;-63
2022/03/06 09:35:22;;;;;;;29.80;20.85;;;8.70;37.70;;;;;;5032932;28;20024;-64
2022/03/06 09:37:48;;;;;;;28.10;19.65;;;8.80;37.30;;;;;;5032972;28;20021;-63
2022/03/06 09:40:14;;;;;;;28.60;20.17;;;8.90;36.60;;;;;;5049984;28;20461;-63
2022/03/06 09:42:41;;;;;;;28.52;19.77;;;8.80;36.40;;;;;;5050369;28;20336;-63
2022/03/06 09:45:09;;;;;;;29.08;19.40;;;8.70;36.60;;;;;;5032258;28;20179;-64
2022/03/06 09:47:36;;;;;;;30.00;19.75;;;8.80;36.60;;;;;;5050297;28;20028;-63
2022/03/06 09:50:03;;;;;;;31.75;21.45;;;9.20;36.60;;;;;;5050274;28;20021;-63
2022/03/06 09:52:29;;;;;;;31.60;21.02;;;9.30;35.60;;;;;;5050344;28;20040;-63
2022/03/06 09:54:55;;;;;;;27.23;18.38;;;9.30;35.50;;;;;;5032236;28;20356;-63
2022/03/06 09:57:21;;;;;;;21.02;15.85;;;9.40;35.30;;;;;;5050746;28;20025;-63
2022/03/06 09:59:47;;;;;;;21.02;15.07;;;9.50;34.70;;;;;;5032953;28;20119;-63
2022/03/06 10:02:14;;;;;;;19.30;13.07;;;9.40;33.80;;;;;;5032760;28;20095;-63
2022/03/06 10:04:41;;;;;;;21.02;14.38;;;9.20;33.50;;;;;;5053829;28;20043;-64
2022/03/06 10:07:08;;;;;;;20.73;14.55;;;9.00;33.90;;;;;;5054385;28;20025;-64
2022/03/06 10:09:45;;;;;;;20.52;15.15;;;8.90;33.90;;;;;;5036438;28;20112;-64
2022/03/06 10:12:18;;;;;;;22.15;16.30;;;8.90;34.70;;;;;;5053665;28;20327;-65
2022/03/06 10:14:44;;;;;;;24.17;17.27;;;8.70;34.40;;;;;;5054376;28;20044;-63
2022/03/06 10:17:30;;;;;;;24.70;17.25;;;8.60;34.80;;;;;;5053973;28;20153;-63
2022/03/06 10:20:03;;;;;;;25.45;17.52;;;8.50;35.00;;;;;;5053318;28;20207;-61
2022/03/06 10:22:36;;;;;;;22.95;16.48;;;8.50;35.30;;;;;;5036563;28;20033;-63
2022/03/06 10:25:07;;;;;;;23.88;16.23;;;8.60;35.40;;;;;;5053425;28;20021;-63
2022/03/06 10:27:49;;;;;;;73.88;41.28;;;8.70;35.00;;;;;;5053994;28;20515;-63
2022/03/06 10:30:31;;;;;;;26.20;17.85;;;8.70;34.40;;;;;;5054024;28;20025;-63
2022/03/06 10:33:16;;;;;;;32.42;21.42;;;8.60;35.00;;;;;;5053445;28;20060;-62
2022/03/06 10:35:44;;;;;;;27.52;18.02;;;8.70;35.50;;;;;;5031506;28;20029;-63
2022/03/06 10:38:27;;;;;;;30.92;18.80;;;9.00;35.30;;;;;;5050732;28;20128;-63
2022/03/06 10:40:54;;;;;;;26.70;19.55;;;8.90;34.60;;;;;;5052398;28;20033;-63
2022/03/06 10:43:26;;;;;;;25.08;18.05;;;8.80;35.20;;;;;;5035957;28;20029;-63
2022/03/06 10:46:16;;;;;;;26.10;18.67;;;8.80;35.20;;;;;;5034188;28;20136;-62
2022/03/06 10:48:53;;;;;;;28.80;19.42;;;8.70;35.00;;;;;;5052935;28;20025;-63
2022/03/06 10:51:19;;;;;;;24.83;17.50;;;8.50;35.10;;;;;;5048813;28;20036;-63
2022/03/06 10:53:52;;;;;;;24.77;17.65;;;8.70;35.30;;;;;;5052489;28;20033;-63
2022/03/06 10:56:18;;;;;;;28.55;16.98;;;8.90;35.10;;;;;;5034964;28;20039;-62
2022/03/06 10:58:45;;;;;;;25.33;17.05;;;9.10;34.40;;;;;;5034259;28;20079;-62
2022/03/06 11:01:11;;;;;;;24.55;16.38;;;9.40;34.10;;;;;;5050286;28;20033;-63
2022/03/06 11:03:38;;;;;;;23.10;16.58;;;9.50;33.80;;;;;;5051571;28;20029;-62
2022/03/06 11:06:05;;;;;;;25.88;17.73;;;9.50;33.60;;;;;;5034217;28;20044;-62
2022/03/06 11:08:32;;;;;;;25.05;17.08;;;9.40;33.80;;;;;;5052522;28;20083;-62
2022/03/06 11:10:59;;;;;;;26.33;16.92;;;9.30;33.30;;;;;;5052714;28;20064;-63
2022/03/06 11:13:28;;;;;;;24.10;17.17;;;9.30;33.30;;;;;;5052635;28;20029;-63
2022/03/06 11:15:54;;;;;;;26.95;17.95;;;9.30;33.40;;;;;;5051905;28;20039;-63
2022/03/06 11:18:19;;;;;;;25.02;17.90;;;9.20;33.90;;;;;;5052884;28;20096;-62
2022/03/06 11:20:46;;;;;;;24.38;17.08;;;9.10;33.60;;;;;;5052918;28;20084;-64
2022/03/06 11:23:42;;;;;;;27.88;17.90;;;8.90;34.00;;;;;;5034429;28;20033;-64
2022/03/06 11:26:13;;;;;;;27.35;17.60;;;8.70;34.50;;;;;;5034789;28;20025;-63
2022/03/06 11:29:16;;;;;;;25.90;20.15;;;8.80;34.70;;;;;;5035120;28;20033;-63
2022/03/06 11:31:57;;;;;;;24.20;17.60;;;9.00;34.30;;;;;;5034901;28;20457;-63
2022/03/06 11:34:29;;;;;;;26.77;17.45;;;9.20;34.00;;;;;;5034883;28;20040;-63
2022/03/06 11:36:56;;;;;;;24.35;17.48;;;9.10;33.60;;;;;;5034342;28;20358;-63
2022/03/06 11:39:31;;;;;;;26.30;18.90;;;9.10;33.80;;;;;;5052323;28;20071;-64
2022/03/06 11:42:04;;;;;;;26.95;18.38;;;9.20;33.70;;;;;;5052359;28;20116;-63
2022/03/06 11:44:36;;;;;;;24.88;18.08;;;9.30;33.80;;;;;;5052954;28;20036;-63
2022/03/06 11:47:14;;;;;;;26.52;18.17;;;9.30;33.80;;;;;;5049660;28;20339;-63
2022/03/06 11:49:40;;;;;;;25.35;18.08;;;9.50;33.80;;;;;;5052519;28;20025;-63
2022/03/06 11:52:29;;;;;;;24.13;17.33;;;9.40;33.60;;;;;;5033248;28;20099;-63
2022/03/06 11:54:56;;;;;;;26.05;17.52;;;9.20;33.90;;;;;;5051136;28;20028;-64
2022/03/06 11:57:38;;;;;;;28.50;17.60;;;9.10;34.20;;;;;;5051733;28;20029;-63
2022/03/06 12:00:17;;;;;;;26.65;18.60;;;9.10;34.20;;;;;;5051278;28;20033;-63
2022/03/06 12:03:05;;;;;;;32.30;18.98;;;9.00;34.30;;;;;;5050944;28;20286;-63
2022/03/06 12:05:55;;;;;;;26.40;18.23;;;9.00;34.60;;;;;;5051700;28;20032;-63
2022/03/06 12:08:23;;;;;;;34.97;19.13;;;9.10;34.50;;;;;;5052662;28;20474;-63
2022/03/06 12:10:49;;;;;;;27.58;19.40;;;8.90;34.80;;;;;;5050758;28;20029;-64
2022/03/06 12:13:22;;;;;;;27.45;19.52;;;9.00;34.80;;;;;;5030595;28;20476;-64
2022/03/06 12:16:05;;;;;;;24.83;18.75;;;9.10;34.60;;;;;;5051298;28;20024;-63
2022/03/06 12:18:32;;;;;;;27.58;19.35;;;9.30;34.20;;;;;;5050376;28;20090;-64
2022/03/06 12:20:58;;;;;;;24.98;18.60;;;9.40;34.10;;;;;;5046633;28;20485;-65
2022/03/06 12:23:28;;;;;;;24.63;19.42;;;9.40;33.90;;;;;;5067680;28;20116;-64
2022/03/06 12:25:59;;;;;;;26.75;18.95;;;9.40;33.90;;;;;;5071251;28;20473;-65
2022/03/06 12:28:49;;;;;;;24.92;18.48;;;9.20;34.20;;;;;;5068942;28;20025;-65
2022/03/06 12:31:35;;;;;;;27.05;20.02;;;9.20;34.20;;;;;;5070066;28;20257;-63
2022/03/06 12:34:22;;;;;;;26.35;18.65;;;9.10;34.10;;;;;;5071327;28;20120;-63
2022/03/06 12:36:55;;;;;;;28.90;19.27;;;9.20;34.40;;;;;;5069713;28;20020;-64
2022/03/06 12:39:21;;;;;;;27.17;18.97;;;9.20;34.20;;;;;;5070721;28;20020;-63